Craig, AK

2:43 PM AKDT on July 23, 2016 (GMT -0800)
Klawock | | Change Station

Elev 79 ft 55.58 °N, 133.08 °W | Updated 31 minutes ago

Light Rain
Light Rain Mist
58 °F
Feels Like 58 °F
N
9
Wind Variable Wind from SSW

Today
High -- | Low -- °F
--% Chance of Precip.
Yesterday
High -- | Low -- °F
Precip. -- in
Pressure 29.89 in
Visibility 3.0 miles
Clouds Few 1000 ft
Mostly Cloudy 2200 ft
Overcast 3400 ft
Dew Point 56 °F
Humidity 93%
Rainfall 0.48 in
Snow Depth Not available.
4:44 AM 9:12 PM
Waning Gibbous, 82% visible
SPECI PAKW 232212Z AUTO 20008KT 3SM -RA BR FEW010 BKN022 OVC034 14/13 A2989 RMK AO2 P0005 T01440133 TSNO $
Pressure 29.89 in
Visibility 3.0 miles
Clouds Few 1000 ft
Mostly Cloudy 2200 ft
Overcast 3400 ft
Dew Point 56 °F
Humidity 93%
Rainfall 0.48 in
Snow Depth Not available.
4:44 AM 9:12 PM
Waning Gibbous, 82% visible
SPECI PAKW 232212Z AUTO 20008KT 3SM -RA BR FEW010 BKN022 OVC034 14/13 A2989 RMK AO2 P0005 T01440133 TSNO $

10-Day Weather Forecast

Almanac

Astronomy

Jul. 23, 2016 Rise Set
Actual Time
Civil Twilight
Nautical Twilight
Astronomical Twilight
Moon
Length of Visible Light
Length of Day
Tomorrow will be .
, % of the Moon is Illuminated

Today's Extremes

State Highs State Lows

Community

WunderPhotos

Upload Photos

1,926,950 photos uploaded!

WunderBlog® & News

Nearby

Air Quality

  Air Quality AQ Index Pollutant
Not available.

Snow Depth

Station Depth Elevation

Earthquake Activity

City Distance Mag. Time & Date
Minimum magnitude displayed is 2.5.

Coastal Water Temperatures

Place Temperature

Stations

Nearby Weather Stations

Station Location Temp. Windchill Dew Point Humidity Wind Precip. Elev Updated Type
                   

Watches & Warnings

There are currently no watches in effect.